Terminal Aerodrome Forecast
Issued by NWS Louisville, KY

Home | Current Version | Previous Version | Text Only | Print | Product List | Glossary On
Versions: 1 2 3 4 5 6 7 8 9 10 11 12 13 14 15 16 17 18 19 20 21 22 23 24
000
FTUS43 KLMK 051400 AAB
TAFLEX
TAF AMD
KLEX 051440Z 0515/0612 01012KT 1 1/2SM -SN BR OVC015
      TEMPO 0515/0517 1/2SM SN BKN009
     FM051800 35009KT 3SM BR BKN025
     FM060000 02005KT P6SM SCT020=

USA.gov is the U.S. government's official web portal to all federal, state and local government web resources and services.